createdAt,value
2023-08-07T00:00:49.423Z,6.70
2023-08-07T00:03:19.982Z,6.80
2023-08-07T00:05:48.589Z,7.00
2023-08-07T00:08:17.138Z,7.33
2023-08-07T00:10:45.551Z,6.80
2023-08-07T00:13:15.356Z,7.03
2023-08-07T00:15:43.784Z,6.73
2023-08-07T00:18:12.242Z,7.00
2023-08-07T00:20:40.530Z,7.27
2023-08-07T00:23:08.873Z,7.40
2023-08-07T00:25:37.339Z,7.97
2023-08-07T00:28:05.915Z,7.97
2023-08-07T00:30:35.780Z,7.83
2023-08-07T00:33:04.519Z,8.03
2023-08-07T00:35:32.924Z,8.57
2023-08-07T00:38:01.340Z,8.57
2023-08-07T00:40:29.789Z,9.23
2023-08-07T00:42:58.327Z,8.00
2023-08-07T00:45:26.732Z,8.70
2023-08-07T00:47:56.726Z,8.97
2023-08-07T00:50:28.485Z,9.10
2023-08-07T00:53:03.380Z,8.40
2023-08-07T00:55:32.140Z,9.17
2023-08-07T00:58:00.859Z,9.13
2023-08-07T01:00:31.488Z,8.50
2023-08-07T01:03:02.927Z,9.77
2023-08-07T01:05:31.876Z,9.87
2023-08-07T01:08:00.387Z,9.87
2023-08-07T01:10:43.176Z,9.43
2023-08-07T01:13:18.702Z,10.10
2023-08-07T01:15:49.489Z,9.60
2023-08-07T01:18:20.177Z,9.50
2023-08-07T01:20:48.482Z,10.30
2023-08-07T01:23:18.302Z,11.00
2023-08-07T01:25:47.377Z,10.80
2023-08-07T01:28:25.432Z,10.50
2023-08-07T01:30:57.620Z,10.93
2023-08-07T01:33:33.601Z,10.07
2023-08-07T01:36:06.444Z,10.67
2023-08-07T01:38:37.458Z,10.67
2023-08-07T01:41:06.453Z,11.30
2023-08-07T01:43:35.140Z,11.70
2023-08-07T01:46:04.231Z,11.17
2023-08-07T01:48:32.719Z,11.50
2023-08-07T01:51:01.190Z,11.70
2023-08-07T01:53:29.586Z,11.20
2023-08-07T01:55:59.377Z,10.53
2023-08-07T01:58:27.967Z,11.30
2023-08-07T02:00:56.708Z,10.77
2023-08-07T02:03:25.181Z,10.90
2023-08-07T02:05:53.634Z,10.53
2023-08-07T02:08:22.152Z,10.47
2023-08-07T02:10:50.575Z,11.13
2023-08-07T02:13:20.394Z,10.60
2023-08-07T02:15:48.900Z,10.87
2023-08-07T02:18:17.262Z,11.10
2023-08-07T02:20:47.463Z,11.37
2023-08-07T02:23:15.935Z,9.93
2023-08-07T02:25:46.597Z,10.67
2023-08-07T02:28:15.077Z,10.63
2023-08-07T02:30:49.851Z,10.87
2023-08-07T02:33:18.361Z,10.83
2023-08-07T02:35:46.840Z,10.87
2023-08-07T02:38:15.359Z,9.73
2023-08-07T02:40:43.910Z,9.70
2023-08-07T02:43:12.326Z,9.40
2023-08-07T02:45:40.755Z,9.63
2023-08-07T02:48:10.728Z,9.60
2023-08-07T02:50:39.183Z,9.87
2023-08-07T02:53:07.558Z,9.80
2023-08-07T02:55:35.923Z,10.23
2023-08-07T02:58:04.365Z,9.73
2023-08-07T03:00:32.776Z,9.50
2023-08-07T03:03:01.283Z,9.83
2023-08-07T03:05:32.012Z,9.87
2023-08-07T03:08:00.440Z,10.53
2023-08-07T03:10:29.192Z,9.17
2023-08-07T03:12:57.545Z,10.00
2023-08-07T03:15:25.903Z,8.97
2023-08-07T03:17:54.465Z,10.10
2023-08-07T03:20:22.927Z,9.73
2023-08-07T03:22:52.712Z,9.90
2023-08-07T03:25:21.132Z,10.27
2023-08-07T03:27:49.578Z,9.13
2023-08-07T03:30:17.933Z,10.13
2023-08-07T03:32:46.297Z,9.40
2023-08-07T03:35:14.727Z,8.20
2023-08-07T03:37:43.430Z,9.43
2023-08-07T03:40:13.973Z,8.37
2023-08-07T03:42:42.381Z,8.83
2023-08-07T03:45:11.666Z,7.73
2023-08-07T03:47:40.110Z,6.87
2023-08-07T03:50:09.482Z,7.17
2023-08-07T03:52:37.892Z,6.93
2023-08-07T03:55:07.007Z,7.87
2023-08-07T03:57:36.871Z,7.57
2023-08-07T04:00:05.836Z,7.30
2023-08-07T04:02:34.265Z,7.07
2023-08-07T04:05:02.565Z,6.60
2023-08-07T04:07:30.924Z,7.03
2023-08-07T04:09:59.411Z,6.63
2023-08-07T04:12:27.792Z,6.40
2023-08-07T04:14:57.629Z,6.50
2023-08-07T04:17:25.947Z,6.10
2023-08-07T04:19:54.324Z,6.73
2023-08-07T04:22:22.854Z,6.80
2023-08-07T04:24:51.180Z,6.90
2023-08-07T04:27:19.573Z,6.70
2023-08-07T04:29:48.129Z,5.80
2023-08-07T04:32:17.840Z,6.57
2023-08-07T04:34:46.499Z,7.40
2023-08-07T04:37:14.881Z,6.60
2023-08-07T04:39:43.787Z,7.00
2023-08-07T04:42:12.114Z,6.90
2023-08-07T04:44:40.474Z,6.30
2023-08-07T04:47:08.860Z,6.60
2023-08-07T04:49:38.589Z,6.13
2023-08-07T04:52:20.601Z,6.43
2023-08-07T04:54:53.044Z,6.03
2023-08-07T04:57:21.400Z,6.23
2023-08-07T04:59:51.900Z,6.40
2023-08-07T05:02:20.549Z,5.93
2023-08-07T05:04:50.448Z,5.87
2023-08-07T05:07:19.135Z,5.70
2023-08-07T05:09:47.604Z,5.50
2023-08-07T05:12:16.018Z,5.93
2023-08-07T05:14:44.418Z,5.33
2023-08-07T05:17:14.238Z,5.90
2023-08-07T05:19:43.106Z,5.60
2023-08-07T05:22:12.973Z,5.63
2023-08-07T05:24:41.365Z,6.00
2023-08-07T05:27:11.263Z,5.97
2023-08-07T05:29:45.129Z,5.27
2023-08-07T05:32:14.012Z,5.47
2023-08-07T05:34:42.388Z,4.90
2023-08-07T05:37:12.285Z,5.03
2023-08-07T05:39:40.767Z,5.40
2023-08-07T05:42:11.325Z,5.77
2023-08-07T05:44:39.647Z,5.30
2023-08-07T05:47:09.638Z,5.23
2023-08-07T05:49:38.167Z,5.13
2023-08-07T05:52:07.379Z,4.90
2023-08-07T05:54:37.258Z,4.90
2023-08-07T05:57:06.328Z,5.40
2023-08-07T05:59:35.956Z,5.10
2023-08-07T06:02:05.521Z,4.87
2023-08-07T06:04:34.186Z,5.10
2023-08-07T06:07:03.118Z,5.00
2023-08-07T06:09:31.576Z,4.43
2023-08-07T06:12:01.538Z,4.87
2023-08-07T06:14:30.397Z,4.40
2023-08-07T06:17:00.500Z,4.27
2023-08-07T06:19:32.635Z,4.50
2023-08-07T06:22:02.079Z,4.67
2023-08-07T06:24:30.871Z,4.80
2023-08-07T06:27:00.805Z,4.80
2023-08-07T06:29:29.158Z,4.77
2023-08-07T06:31:57.835Z,5.10
2023-08-07T06:34:26.496Z,4.50
2023-08-07T06:36:55.027Z,5.00
2023-08-07T06:39:23.368Z,4.90
2023-08-07T06:41:51.755Z,4.80
2023-08-07T06:44:21.591Z,4.90
2023-08-07T06:46:50.068Z,5.10
2023-08-07T06:49:18.619Z,4.93
2023-08-07T06:51:47.319Z,5.07
2023-08-07T06:54:15.664Z,4.90
2023-08-07T06:56:45.166Z,5.23
2023-08-07T06:59:13.529Z,5.27
2023-08-07T07:01:43.312Z,4.90
2023-08-07T07:04:11.682Z,4.90
2023-08-07T07:06:40.398Z,5.00
2023-08-07T07:09:08.881Z,5.10
2023-08-07T07:11:37.303Z,5.57
2023-08-07T07:14:05.752Z,4.90
2023-08-07T07:16:34.267Z,4.40
2023-08-07T07:19:04.263Z,5.30
2023-08-07T07:21:32.595Z,5.57
2023-08-07T07:24:00.900Z,5.37
2023-08-07T07:26:29.297Z,4.60
2023-08-07T07:28:57.800Z,5.20
2023-08-07T07:31:26.222Z,5.13
2023-08-07T07:33:54.621Z,5.83
2023-08-07T07:36:24.543Z,5.33
2023-08-07T07:38:52.964Z,5.30
2023-08-07T07:41:21.362Z,5.17
2023-08-07T07:43:49.895Z,5.27
2023-08-07T07:46:18.317Z,5.20
2023-08-07T07:48:46.664Z,5.50
2023-08-07T07:51:15.019Z,5.40
2023-08-07T07:53:44.885Z,5.40
2023-08-07T07:56:13.482Z,5.73
2023-08-07T07:58:42.723Z,5.23
2023-08-07T08:01:11.433Z,5.90
2023-08-07T08:03:39.763Z,5.40
2023-08-07T08:06:08.255Z,5.90
2023-08-07T08:08:36.830Z,5.40
2023-08-07T08:11:06.701Z,5.90
2023-08-07T08:13:36.892Z,5.63
2023-08-07T08:16:06.066Z,5.20
2023-08-07T08:18:34.444Z,5.80
2023-08-07T08:21:03.256Z,5.10
2023-08-07T08:23:31.778Z,5.30
2023-08-07T08:26:00.218Z,5.33
2023-08-07T08:28:30.040Z,6.07
2023-08-07T08:30:58.536Z,5.70
2023-08-07T08:33:26.854Z,6.20
2023-08-07T08:35:55.259Z,5.40
2023-08-07T08:38:24.543Z,5.33
2023-08-07T08:40:54.620Z,5.63
2023-08-07T08:43:24.065Z,5.90
2023-08-07T08:45:54.205Z,5.77
2023-08-07T08:48:24.910Z,5.43
2023-08-07T08:50:54.601Z,5.70
2023-08-07T08:53:24.308Z,5.47
2023-08-07T08:55:53.713Z,6.60
2023-08-07T08:58:23.574Z,5.43
2023-08-07T09:00:54.045Z,6.00
2023-08-07T09:03:23.591Z,5.80
2023-08-07T09:05:55.461Z,5.87
2023-08-07T09:08:26.622Z,5.23
2023-08-07T09:10:55.476Z,5.33
2023-08-07T09:13:26.822Z,5.30
2023-08-07T09:15:57.878Z,5.43
2023-08-07T09:18:26.388Z,5.73
2023-08-07T09:20:55.132Z,5.60
2023-08-07T09:23:24.173Z,5.53
2023-08-07T09:26:01.689Z,5.43
2023-08-07T09:28:32.071Z,5.00
2023-08-07T09:31:03.266Z,5.23
2023-08-07T09:33:32.761Z,5.17
2023-08-07T09:36:01.717Z,5.30
2023-08-07T09:38:32.793Z,5.30
2023-08-07T09:41:01.544Z,5.20
2023-08-07T09:43:30.979Z,4.73
2023-08-07T09:46:06.827Z,6.50
2023-08-07T09:48:42.457Z,4.90
2023-08-07T09:51:11.298Z,4.80
2023-08-07T09:53:40.190Z,4.90
2023-08-07T09:56:09.033Z,5.10
2023-08-07T09:58:37.625Z,5.20
2023-08-07T10:01:08.645Z,4.93
2023-08-07T10:03:38.165Z,5.50
2023-08-07T10:06:07.586Z,5.70
2023-08-07T10:08:37.771Z,4.70
2023-08-07T10:11:07.222Z,4.63
2023-08-07T10:13:39.655Z,5.00
2023-08-07T10:16:10.133Z,5.23
2023-08-07T10:18:39.014Z,5.30
2023-08-07T10:21:09.071Z,5.17
2023-08-07T10:23:38.605Z,5.50
2023-08-07T10:26:08.530Z,5.67
2023-08-07T10:28:40.390Z,5.07
2023-08-07T10:31:11.799Z,5.30
2023-08-07T10:33:40.786Z,5.40
2023-08-07T10:36:13.677Z,4.90
2023-08-07T10:38:43.330Z,6.07
2023-08-07T10:41:14.653Z,4.93
2023-08-07T10:43:44.474Z,5.60
2023-08-07T10:46:19.684Z,5.03
2023-08-07T10:48:55.941Z,5.90
2023-08-07T10:51:31.910Z,5.10
2023-08-07T10:54:02.072Z,5.23
2023-08-07T10:56:33.415Z,5.00
2023-08-07T10:59:10.915Z,4.90
2023-08-07T11:01:45.038Z,4.73
2023-08-07T11:04:15.114Z,5.10
2023-08-07T11:06:45.847Z,5.10
2023-08-07T11:09:14.472Z,5.37
2023-08-07T11:11:46.197Z,4.90
2023-08-07T11:14:16.935Z,5.30
2023-08-07T11:16:48.061Z,5.00
2023-08-07T11:19:17.671Z,5.03
2023-08-07T11:21:46.610Z,4.90
2023-08-07T11:24:16.875Z,5.30
2023-08-07T11:26:46.230Z,4.90
2023-08-07T11:29:19.080Z,4.60
2023-08-07T11:31:49.298Z,4.60
2023-08-07T11:34:19.850Z,5.10
2023-08-07T11:36:49.403Z,4.73
2023-08-07T11:39:18.303Z,5.00
2023-08-07T11:41:47.028Z,4.90
2023-08-07T11:44:15.600Z,4.90
2023-08-07T11:46:43.985Z,5.20
2023-08-07T11:49:14.714Z,5.60
2023-08-07T11:51:43.197Z,5.40
2023-08-07T11:54:17.906Z,5.80
2023-08-07T11:56:48.027Z,4.77
2023-08-07T11:59:18.984Z,4.80
2023-08-07T12:01:48.646Z,5.80
2023-08-07T12:04:20.786Z,8.80
2023-08-07T12:06:57.326Z,5.40
2023-08-07T12:09:28.056Z,5.83
2023-08-07T12:11:59.277Z,5.10
2023-08-07T12:14:31.540Z,5.40
2023-08-07T12:16:59.869Z,5.33
2023-08-07T12:19:38.587Z,5.80
2023-08-07T12:22:09.214Z,4.87
2023-08-07T12:24:39.141Z,5.03
2023-08-07T12:27:08.220Z,4.80
2023-08-07T12:29:36.736Z,5.20
2023-08-07T12:32:05.310Z,4.40
2023-08-07T12:34:35.829Z,4.93
2023-08-07T12:37:04.895Z,5.27
2023-08-07T12:44:37.642Z,4.80
2023-08-07T12:47:06.241Z,4.80
2023-08-07T12:49:36.014Z,5.67
2023-08-07T12:52:04.980Z,4.80
2023-08-07T12:54:33.382Z,4.87
2023-08-07T12:57:01.729Z,5.40
2023-08-07T12:59:30.179Z,5.10
2023-08-07T13:01:58.635Z,5.13
2023-08-07T13:04:27.092Z,4.77
2023-08-07T13:06:56.991Z,5.20
2023-08-07T13:09:25.876Z,5.00
2023-08-07T13:11:54.108Z,4.50
2023-08-07T13:14:22.348Z,4.63
2023-08-07T13:16:52.385Z,4.90
2023-08-07T13:19:20.758Z,4.80
2023-08-07T13:21:49.639Z,4.83
2023-08-07T13:24:19.452Z,4.70
2023-08-07T13:26:48.162Z,5.10
2023-08-07T13:29:17.152Z,4.80
2023-08-07T13:31:47.406Z,4.70
2023-08-07T13:34:15.709Z,4.40
2023-08-07T13:36:44.132Z,4.50
2023-08-07T13:39:12.449Z,4.60
2023-08-07T13:41:42.159Z,4.37
2023-08-07T13:44:11.360Z,4.50
2023-08-07T13:46:39.700Z,4.17
2023-08-07T13:49:08.062Z,4.43
2023-08-07T13:51:36.358Z,5.30
2023-08-07T13:54:04.622Z,4.80
2023-08-07T13:56:32.941Z,5.03
2023-08-07T13:59:02.622Z,4.73
2023-08-07T14:01:31.007Z,4.60
2023-08-07T14:04:00.663Z,5.50
2023-08-07T14:06:28.953Z,5.60
2023-08-07T14:08:57.304Z,5.63
2023-08-07T14:11:31.405Z,5.50
2023-08-07T14:13:59.876Z,5.23
2023-08-07T14:16:29.532Z,4.50
2023-08-07T14:18:57.874Z,4.60
2023-08-07T14:21:26.405Z,6.00
2023-08-07T14:23:54.771Z,5.40
2023-08-07T14:26:23.510Z,4.87
2023-08-07T14:28:52.145Z,5.30
2023-08-07T14:31:20.468Z,5.27
2023-08-07T14:33:50.705Z,5.03
2023-08-07T14:36:19.580Z,4.90
2023-08-07T14:38:47.803Z,4.73
2023-08-07T14:41:16.259Z,5.73
2023-08-07T14:43:44.522Z,4.27
2023-08-07T14:46:13.053Z,4.40
2023-08-07T14:48:41.412Z,4.60
2023-08-07T14:51:11.201Z,4.53
2023-08-07T14:53:39.496Z,4.23
2023-08-07T14:56:09.720Z,4.30
2023-08-07T14:58:38.283Z,4.70
2023-08-07T15:01:06.633Z,4.27
2023-08-07T15:03:34.978Z,4.60
2023-08-07T15:06:03.279Z,4.40
2023-08-07T15:08:33.174Z,4.70
2023-08-07T15:11:01.573Z,4.83
2023-08-07T15:13:30.481Z,4.80
2023-08-07T15:15:58.997Z,4.60
2023-08-07T15:18:27.334Z,4.50
2023-08-07T15:20:55.644Z,4.60
2023-08-07T15:23:24.112Z,4.50
2023-08-07T15:25:54.967Z,4.57
2023-08-07T15:28:23.317Z,4.63
2023-08-07T15:30:52.555Z,4.00
2023-08-07T15:33:23.649Z,4.20
2023-08-07T15:35:56.179Z,4.47
2023-08-07T15:38:25.894Z,5.23
2023-08-07T15:40:55.588Z,4.30
2023-08-07T15:43:24.078Z,4.70
2023-08-07T15:45:53.790Z,4.83
2023-08-07T15:48:22.550Z,5.10
2023-08-07T15:50:51.440Z,4.00
2023-08-07T15:53:19.764Z,4.03
2023-08-07T15:55:48.170Z,4.53
2023-08-07T15:58:19.354Z,4.23
2023-08-07T16:00:47.691Z,4.80
2023-08-07T16:03:16.010Z,4.40
2023-08-07T16:05:44.286Z,4.97
2023-08-07T16:08:12.957Z,4.27
2023-08-07T16:10:41.327Z,4.90
2023-08-07T16:13:09.776Z,4.33
2023-08-07T16:15:39.664Z,3.87
2023-08-07T16:18:08.109Z,4.00
2023-08-07T16:20:36.424Z,4.20
2023-08-07T16:23:04.838Z,4.37
2023-08-07T16:25:33.225Z,4.10
2023-08-07T16:28:02.880Z,5.30
2023-08-07T16:30:31.215Z,3.90
2023-08-07T16:33:01.033Z,4.37
2023-08-07T16:35:29.840Z,4.47
2023-08-07T16:37:58.246Z,4.50
2023-08-07T16:40:26.550Z,4.77
2023-08-07T16:42:54.934Z,4.77
2023-08-07T16:45:24.800Z,4.40
2023-08-07T16:47:53.347Z,4.67
2023-08-07T16:50:24.953Z,4.83
2023-08-07T16:52:53.307Z,4.40
2023-08-07T16:55:21.872Z,4.20
2023-08-07T16:57:50.233Z,4.83
2023-08-07T17:00:19.517Z,4.67
2023-08-07T17:02:49.549Z,4.70
2023-08-07T17:05:17.995Z,4.60
2023-08-07T17:07:47.755Z,4.63
2023-08-07T17:10:17.576Z,4.20
2023-08-07T17:12:45.989Z,5.03
2023-08-07T17:15:14.359Z,4.73
2023-08-07T17:17:42.769Z,4.20
2023-08-07T17:20:12.253Z,4.50
2023-08-07T17:22:41.017Z,4.43
2023-08-07T17:25:11.568Z,4.50
2023-08-07T17:27:39.935Z,4.90
2023-08-07T17:30:09.596Z,4.90
2023-08-07T17:32:38.321Z,5.43
2023-08-07T17:35:07.972Z,6.27
2023-08-07T17:37:36.271Z,5.33
2023-08-07T17:40:06.233Z,5.10
2023-08-07T17:42:36.028Z,5.00
2023-08-07T17:45:04.960Z,4.83
2023-08-07T17:47:33.312Z,5.40
2023-08-07T17:50:01.905Z,4.80
2023-08-07T17:52:32.795Z,5.20
2023-08-07T17:55:02.229Z,4.90
2023-08-07T17:57:30.783Z,5.90
2023-08-07T18:00:00.544Z,5.83
2023-08-07T18:02:29.018Z,6.27
2023-08-07T18:04:57.552Z,5.67
2023-08-07T18:07:26.062Z,5.13
2023-08-07T18:09:54.436Z,5.20
2023-08-07T18:12:22.878Z,5.00
2023-08-07T18:14:51.151Z,4.87
2023-08-07T18:17:21.018Z,4.80
2023-08-07T18:19:49.408Z,5.43
2023-08-07T18:22:17.725Z,5.77
2023-08-07T18:24:46.107Z,4.40
2023-08-07T18:27:14.797Z,4.60
2023-08-07T18:29:43.677Z,4.70
2023-08-07T18:32:11.964Z,4.93
2023-08-07T18:34:41.720Z,4.57
2023-08-07T18:37:10.012Z,4.40
2023-08-07T18:39:38.693Z,5.00
2023-08-07T18:42:09.752Z,5.37
2023-08-07T18:44:38.056Z,4.90
2023-08-07T18:47:07.045Z,4.80
2023-08-07T18:49:35.552Z,5.10
2023-08-07T18:52:06.153Z,5.10
2023-08-07T18:54:34.449Z,5.40
2023-08-07T18:57:05.806Z,6.13
2023-08-07T18:59:35.600Z,5.30
2023-08-07T19:02:05.345Z,5.37
2023-08-07T19:04:33.896Z,6.20
2023-08-07T19:07:02.469Z,7.17
2023-08-07T19:09:32.249Z,6.70
2023-08-07T19:12:02.614Z,7.10
2023-08-07T19:14:31.312Z,6.47
2023-08-07T19:16:59.899Z,7.60
2023-08-07T19:19:28.548Z,6.90
2023-08-07T19:21:57.046Z,6.30
2023-08-07T19:24:25.434Z,5.67
2023-08-07T19:26:55.258Z,5.27
2023-08-07T19:29:23.577Z,5.83
2023-08-07T19:31:52.039Z,5.80
2023-08-07T19:34:20.687Z,6.60
2023-08-07T19:36:51.550Z,5.67
2023-08-07T19:39:20.527Z,5.50
2023-08-07T19:41:48.918Z,5.90
2023-08-07T19:44:18.615Z,6.00
2023-08-07T19:46:47.294Z,6.23
2023-08-07T19:49:15.552Z,5.90
2023-08-07T19:51:43.868Z,5.80
2023-08-07T19:54:12.376Z,5.60
2023-08-07T19:56:40.648Z,5.47
2023-08-07T19:59:10.795Z,5.30
2023-08-07T20:01:40.692Z,5.63
2023-08-07T20:04:09.100Z,5.57
2023-08-07T20:06:37.792Z,6.37
2023-08-07T20:09:06.960Z,5.40
2023-08-07T20:11:38.934Z,6.70
2023-08-07T20:14:07.282Z,5.70
2023-08-07T20:16:35.771Z,6.00
2023-08-07T20:19:05.765Z,5.90
2023-08-07T20:21:34.469Z,6.00
2023-08-07T20:24:02.787Z,5.90
2023-08-07T20:26:33.793Z,6.40
2023-08-07T20:29:02.459Z,5.90
2023-08-07T20:31:31.000Z,5.73
2023-08-07T20:33:59.879Z,5.20
2023-08-07T20:36:30.435Z,4.87
2023-08-07T20:38:58.939Z,5.37
2023-08-07T20:41:27.898Z,5.30
2023-08-07T20:43:56.314Z,5.70
2023-08-07T20:46:25.435Z,5.37
2023-08-07T20:48:53.796Z,5.07
2023-08-07T20:51:22.273Z,5.60
2023-08-07T20:53:52.743Z,5.37
2023-08-07T20:56:21.383Z,5.70
2023-08-07T20:58:50.150Z,5.10
2023-08-07T21:01:18.535Z,4.70
2023-08-07T21:03:46.821Z,4.87
2023-08-07T21:06:15.117Z,5.07
2023-08-07T21:08:43.488Z,4.70
2023-08-07T21:11:13.329Z,4.60
2023-08-07T21:13:41.846Z,4.27
2023-08-07T21:16:10.154Z,5.33
2023-08-07T21:18:38.503Z,4.70
2023-08-07T21:21:06.756Z,4.87
2023-08-07T21:23:36.096Z,5.07
2023-08-07T21:26:04.559Z,5.23
2023-08-07T21:28:34.722Z,4.93
2023-08-07T21:31:03.978Z,4.87
2023-08-07T21:33:32.411Z,5.70
2023-08-07T21:36:01.094Z,6.70
2023-08-07T21:38:29.397Z,6.40
2023-08-07T21:40:57.692Z,5.40
2023-08-07T21:43:26.637Z,5.00
2023-08-07T21:45:56.460Z,6.03
2023-08-07T21:48:24.747Z,4.70
2023-08-07T21:50:53.240Z,4.63
2023-08-07T21:53:21.763Z,5.80
2023-08-07T21:55:50.176Z,6.20
2023-08-07T21:58:18.565Z,4.87
2023-08-07T22:00:49.430Z,4.60
2023-08-07T22:03:19.313Z,4.63
2023-08-07T22:05:47.895Z,5.50
2023-08-07T22:08:16.289Z,4.83
2023-08-07T22:10:44.636Z,4.63
2023-08-07T22:13:13.189Z,6.23
2023-08-07T22:15:41.632Z,4.73
2023-08-07T22:18:10.151Z,4.97
2023-08-07T22:20:39.914Z,4.80
2023-08-07T22:23:08.226Z,4.60
2023-08-07T22:25:36.983Z,5.57
2023-08-07T22:28:06.622Z,5.00
2023-08-07T22:30:34.916Z,4.87
2023-08-07T22:33:07.480Z,4.60
2023-08-07T22:35:35.844Z,4.80
2023-08-07T22:38:05.849Z,5.30
2023-08-07T22:40:34.204Z,4.40
2023-08-07T22:43:02.497Z,4.77
2023-08-07T22:45:30.881Z,4.80
2023-08-07T22:47:59.265Z,4.67
2023-08-07T22:50:27.650Z,5.10
2023-08-07T22:52:55.990Z,5.00
2023-08-07T22:55:25.778Z,4.70
2023-08-07T22:57:54.112Z,4.40
2023-08-07T23:00:22.436Z,4.87
2023-08-07T23:02:51.117Z,4.70
2023-08-07T23:05:19.643Z,4.70
2023-08-07T23:07:47.955Z,4.70
2023-08-07T23:10:17.110Z,4.50
2023-08-07T23:12:47.340Z,4.63
2023-08-07T23:15:15.795Z,4.50
2023-08-07T23:17:44.241Z,4.70
2023-08-07T23:20:13.674Z,4.80
2023-08-07T23:22:42.189Z,4.70
2023-08-07T23:25:11.122Z,4.47
2023-08-07T23:27:39.358Z,4.50
2023-08-07T23:30:10.152Z,5.07
2023-08-07T23:32:38.686Z,5.03
2023-08-07T23:35:07.348Z,4.60
2023-08-07T23:37:35.643Z,4.20
2023-08-07T23:40:04.444Z,4.60
2023-08-07T23:42:32.722Z,4.63
2023-08-07T23:45:01.053Z,4.50
2023-08-07T23:47:30.980Z,4.50
2023-08-07T23:49:59.254Z,4.80
2023-08-07T23:52:27.638Z,4.73
2023-08-07T23:54:55.915Z,4.50
2023-08-07T23:57:24.243Z,4.60
2023-08-07T23:59:52.584Z,4.50
